Terminal Aerodrome Forecast
Issued by NWS

Home | Current Version | Previous Version | Text Only | Print | Product List | Glossary On
Versions: 1 2 3 4 5 6 7 8 9 10 11 12 13 14 15
000
FTUS42 KMLB 202344
TAFISM
TAF
KISM 202344Z 2100/2124 10005KT P6SM VCSH FEW015 SCT120 OVC150
     FM210200 09003KT P6SM FEW020 SCT120 BKN150
     FM211400 10008KT P6SM VCSH SCT030 SCT120
     FM212000 11009KT P6SM FEW050=

USA.gov is the U.S. government's official web portal to all federal, state and local government web resources and services.